createdAt,value
2018-11-13T00:00:40.382Z,72.58
2018-11-13T00:08:57.307Z,72.71
2018-11-13T00:11:32.957Z,72.63
2018-11-13T00:19:43.691Z,72.80
2018-11-13T00:22:18.399Z,72.83
2018-11-13T00:30:28.959Z,73.08
2018-11-13T00:33:04.062Z,72.85
2018-11-13T00:41:18.615Z,72.55
2018-11-13T00:43:54.167Z,72.50
2018-11-13T01:00:55.637Z,72.58
2018-11-13T01:03:30.956Z,72.54
2018-11-13T01:11:41.480Z,73.31
2018-11-13T01:14:15.835Z,73.06
2018-11-13T01:22:28.768Z,73.12
2018-11-13T01:28:08.967Z,73.56
2018-11-13T01:30:44.212Z,73.64
2018-11-13T01:39:34.461Z,73.97
2018-11-13T01:42:09.709Z,73.77
2018-11-13T01:50:21.293Z,73.76
2018-11-13T01:52:55.895Z,73.51
2018-11-13T02:01:28.595Z,73.81
2018-11-13T02:04:03.296Z,73.74
2018-11-13T02:12:25.932Z,73.11
2018-11-13T02:17:43.622Z,73.05
2018-11-13T02:20:19.795Z,73.19
2018-11-13T02:31:24.497Z,73.83
2018-11-13T02:34:00.004Z,73.94
2018-11-13T02:47:53.260Z,73.62
2018-11-13T02:50:28.708Z,73.62
2018-11-13T03:01:32.935Z,73.91
2018-11-13T03:04:07.433Z,73.63
2018-11-13T03:15:22.584Z,73.69
2018-11-13T03:17:57.240Z,73.77
2018-11-13T03:29:04.372Z,74.20
2018-11-13T03:31:39.100Z,73.93
2018-11-13T03:42:47.940Z,74.08
2018-11-13T03:45:22.591Z,74.02
2018-11-13T03:53:38.911Z,73.68
2018-11-13T03:56:13.886Z,73.64
2018-11-13T04:04:36.508Z,74.00
2018-11-13T04:07:12.328Z,73.93
2018-11-13T04:09:48.179Z,73.80
2018-11-13T04:12:22.936Z,73.57
2018-11-13T04:14:57.876Z,73.65
2018-11-13T04:17:32.655Z,73.37
2018-11-13T04:20:10.567Z,73.19
2018-11-13T04:22:45.606Z,73.22
2018-11-13T04:25:21.620Z,73.41
2018-11-13T04:27:56.955Z,73.43
2018-11-13T04:30:32.408Z,73.40
2018-11-13T04:33:07.453Z,73.36
2018-11-13T04:35:41.991Z,73.26
2018-11-13T04:38:17.669Z,73.42
2018-11-13T04:43:38.674Z,73.11
2018-11-13T04:46:14.042Z,72.69
2018-11-13T04:54:37.501Z,73.44
2018-11-13T04:57:12.079Z,73.13
2018-11-13T04:59:46.627Z,72.89
2018-11-13T05:02:21.384Z,72.65
2018-11-13T05:04:56.645Z,72.79
2018-11-13T05:07:31.020Z,72.71
2018-11-13T05:12:47.955Z,72.67
2018-11-13T05:15:22.491Z,72.72
2018-11-13T05:23:45.146Z,72.90
2018-11-13T05:26:20.715Z,72.74
2018-11-13T05:28:55.051Z,72.94
2018-11-13T05:31:30.071Z,73.22
2018-11-13T05:34:04.470Z,72.86
2018-11-13T05:36:39.460Z,72.89
2018-11-13T05:39:15.118Z,73.32
2018-11-13T05:41:50.245Z,73.65
2018-11-13T05:44:25.775Z,73.82
2018-11-13T05:55:18.058Z,73.98
2018-11-13T06:00:35.127Z,74.01
2018-11-13T06:03:10.554Z,73.78
2018-11-13T06:11:33.527Z,75.17
2018-11-13T06:14:09.344Z,74.93
2018-11-13T06:25:00.807Z,75.48
2018-11-13T06:30:18.771Z,75.15
2018-11-13T06:32:53.991Z,75.07
2018-11-13T06:41:16.550Z,75.57
2018-11-13T06:43:50.820Z,75.58
2018-11-13T06:46:26.035Z,75.25
2018-11-13T06:49:00.149Z,75.27
2018-11-13T06:55:03.859Z,75.25
2018-11-13T07:00:20.900Z,75.44
2018-11-13T07:02:56.217Z,75.04
2018-11-13T07:14:06.498Z,75.12
2018-11-13T07:16:40.844Z,75.35
2018-11-13T07:19:15.696Z,75.06
2018-11-13T07:24:46.008Z,75.46
2018-11-13T07:27:21.289Z,75.14
2018-11-13T07:29:57.451Z,75.20
2018-11-13T07:32:32.462Z,75.24
2018-11-13T07:35:07.227Z,75.23
2018-11-13T07:37:43.813Z,75.07
2018-11-13T07:40:19.102Z,74.97
2018-11-13T07:42:54.420Z,74.99
2018-11-13T07:45:28.665Z,75.00
2018-11-13T07:48:03.450Z,74.93
2018-11-13T07:50:39.238Z,74.99
2018-11-13T07:53:13.853Z,74.87
2018-11-13T07:55:48.549Z,74.64
2018-11-13T07:58:23.995Z,74.36
2018-11-13T08:00:58.611Z,74.36
2018-11-13T08:03:36.400Z,74.07
2018-11-13T08:06:10.684Z,73.25
2018-11-13T08:08:45.347Z,73.02
2018-11-13T08:11:21.207Z,72.62
2018-11-13T08:13:57.357Z,72.48
2018-11-13T08:16:34.109Z,72.12
2018-11-13T08:19:08.507Z,71.76
2018-11-13T08:21:43.509Z,71.38
2018-11-13T08:24:17.904Z,71.30
2018-11-13T08:26:52.751Z,71.08
2018-11-13T08:29:27.667Z,70.89
2018-11-13T08:35:07.823Z,70.79
2018-11-13T08:37:42.559Z,70.71
2018-11-13T08:40:18.338Z,70.42
2018-11-13T08:42:53.470Z,70.03
2018-11-13T08:45:28.170Z,69.90
2018-11-13T08:50:50.287Z,69.96
2018-11-13T08:53:25.733Z,69.94
2018-11-13T08:56:01.312Z,69.96
2018-11-13T08:58:35.969Z,70.08
2018-11-13T09:01:11.312Z,69.90
2018-11-13T09:06:30.182Z,69.34
2018-11-13T09:11:46.924Z,69.28
2018-11-13T09:14:22.925Z,69.30
2018-11-13T09:19:39.792Z,69.03
2018-11-13T09:22:15.301Z,69.06
2018-11-13T09:27:34.328Z,68.70
2018-11-13T09:30:12.914Z,68.54
2018-11-13T09:32:47.362Z,68.10
2018-11-13T09:38:05.069Z,67.46
2018-11-13T09:40:40.679Z,66.78
2018-11-13T09:43:15.121Z,66.17
2018-11-13T09:48:33.615Z,66.01
2018-11-13T09:51:09.122Z,65.55
2018-11-13T09:53:44.064Z,65.28
2018-11-13T09:59:01.284Z,64.14
2018-11-13T10:01:37.384Z,63.54
2018-11-13T10:04:12.966Z,63.55
2018-11-13T10:09:39.240Z,63.20
2018-11-13T10:12:13.886Z,63.38
2018-11-13T10:17:40.469Z,62.33
2018-11-13T10:28:27.270Z,62.33
2018-11-13T10:31:02.207Z,62.25
2018-11-13T10:33:36.671Z,62.07
2018-11-13T10:38:54.264Z,62.44
2018-11-13T10:41:29.688Z,62.38
2018-11-13T10:44:04.731Z,62.52
2018-11-13T10:49:26.566Z,62.43
2018-11-13T10:52:01.510Z,62.68
2018-11-13T10:57:19.891Z,62.32
2018-11-13T10:59:55.666Z,62.11
2018-11-13T11:02:48.709Z,61.91
2018-11-13T11:08:32.228Z,62.13
2018-11-13T11:13:44.823Z,61.25
2018-11-13T11:16:19.903Z,60.91
2018-11-13T11:18:55.255Z,61.29
2018-11-13T11:21:31.261Z,61.64
2018-11-13T11:26:56.728Z,60.27
2018-11-13T11:29:31.662Z,59.79
2018-11-13T11:32:07.173Z,59.70
2018-11-13T11:37:27.695Z,57.29
2018-11-13T11:40:02.775Z,56.23
2018-11-13T11:50:59.012Z,55.24
2018-11-13T11:53:34.554Z,55.12
2018-11-13T11:58:55.563Z,54.90
2018-11-13T12:01:29.966Z,54.97
2018-11-13T12:04:04.431Z,55.17
2018-11-13T12:09:21.468Z,55.19
2018-11-13T12:11:56.026Z,55.25
2018-11-13T12:14:30.931Z,55.35
2018-11-13T12:17:05.797Z,55.51
2018-11-13T12:19:40.749Z,55.60
2018-11-13T12:22:14.943Z,55.81
2018-11-13T12:24:49.814Z,56.03
2018-11-13T12:27:25.059Z,56.00
2018-11-13T12:30:00.020Z,56.07
2018-11-13T12:32:35.746Z,56.19
2018-11-13T12:35:12.162Z,56.12
2018-11-13T12:37:47.661Z,56.08
2018-11-13T12:40:25.474Z,56.19
2018-11-13T12:43:00.578Z,56.18
2018-11-13T12:45:35.529Z,56.28
2018-11-13T12:48:09.718Z,57.09
2018-11-13T12:54:15.633Z,59.25
2018-11-13T12:56:49.956Z,59.64
2018-11-13T12:59:25.094Z,59.67
2018-11-13T13:01:59.737Z,59.81
2018-11-13T13:04:34.338Z,59.83
2018-11-13T13:07:09.390Z,60.82
2018-11-13T13:12:25.852Z,61.52
2018-11-13T13:18:05.166Z,61.43
2018-11-13T13:20:39.772Z,61.83
2018-11-13T13:23:15.174Z,61.94
2018-11-13T13:31:15.714Z,62.65
2018-11-13T13:39:37.519Z,62.84
2018-11-13T13:42:13.585Z,62.21
2018-11-13T13:44:48.862Z,61.80
2018-11-13T13:47:23.413Z,61.44
2018-11-13T13:52:45.062Z,61.13
2018-11-13T13:58:34.282Z,59.60
2018-11-13T14:01:09.536Z,59.06
2018-11-13T14:09:11.878Z,58.44
2018-11-13T14:11:46.525Z,58.71
2018-11-13T14:14:20.937Z,58.62
2018-11-13T14:19:38.285Z,58.66
2018-11-13T14:22:12.353Z,58.77
2018-11-13T14:27:30.683Z,58.74
2018-11-13T14:30:06.854Z,58.78
2018-11-13T14:32:42.231Z,58.98
2018-11-13T14:37:59.765Z,58.99
2018-11-13T14:43:43.302Z,59.03
2018-11-13T14:49:09.551Z,59.38
2018-11-13T14:51:44.917Z,59.23
2018-11-13T14:54:20.094Z,59.16
2018-11-13T14:59:38.065Z,59.27
2018-11-13T15:02:13.160Z,59.39
2018-11-13T15:07:30.996Z,59.74
2018-11-13T15:10:07.469Z,59.95
2018-11-13T15:12:43.339Z,60.20
2018-11-13T15:17:59.793Z,60.23
2018-11-13T15:20:34.683Z,60.37
2018-11-13T15:23:10.994Z,60.56
2018-11-13T15:31:37.817Z,60.58
2018-11-13T15:34:13.025Z,60.64
2018-11-13T15:39:35.352Z,60.92
2018-11-13T15:42:11.046Z,60.90
2018-11-13T15:47:28.351Z,60.88
2018-11-13T15:50:03.367Z,61.13
2018-11-13T15:52:41.116Z,61.20
2018-11-13T15:57:59.578Z,61.45
2018-11-13T16:00:35.542Z,61.63
2018-11-13T16:03:36.149Z,61.81
2018-11-13T16:08:54.178Z,61.84
2018-11-13T16:11:30.070Z,61.77
2018-11-13T16:14:04.998Z,61.99
2018-11-13T16:16:40.195Z,62.09
2018-11-13T16:19:14.478Z,61.93
2018-11-13T16:21:51.036Z,62.18
2018-11-13T16:27:06.841Z,62.64
2018-11-13T16:29:41.283Z,62.72
2018-11-13T16:32:16.220Z,63.13
2018-11-13T16:43:17.019Z,63.29
2018-11-13T16:54:03.519Z,63.20
2018-11-13T16:59:37.380Z,63.34
2018-11-13T17:02:13.763Z,63.18
2018-11-13T17:04:48.453Z,63.24
2018-11-13T17:10:04.294Z,63.53
2018-11-13T17:12:39.720Z,63.39
2018-11-13T17:15:16.802Z,63.67
2018-11-13T17:17:53.084Z,63.83
2018-11-13T17:20:28.231Z,63.97
2018-11-13T17:23:03.643Z,64.02
2018-11-13T17:28:39.326Z,64.19
2018-11-13T17:31:15.228Z,64.27
2018-11-13T17:33:50.232Z,64.32
2018-11-13T17:36:25.536Z,64.33
2018-11-13T17:38:59.487Z,64.67
2018-11-13T17:41:34.671Z,64.56
2018-11-13T17:44:27.333Z,64.44
2018-11-13T17:47:01.362Z,64.66
2018-11-13T17:49:36.423Z,64.75
2018-11-13T17:52:12.230Z,64.64
2018-11-13T17:54:46.932Z,64.72
2018-11-13T17:57:22.147Z,64.83
2018-11-13T17:59:58.093Z,64.64
2018-11-13T18:02:33.901Z,64.64
2018-11-13T18:07:53.179Z,64.70
2018-11-13T18:10:28.741Z,64.75
2018-11-13T18:13:03.819Z,64.98
2018-11-13T18:18:22.827Z,65.00
2018-11-13T18:20:57.545Z,64.88
2018-11-13T18:23:33.184Z,65.10
2018-11-13T18:26:08.708Z,65.21
2018-11-13T18:28:44.245Z,65.22
2018-11-13T18:31:19.950Z,65.28
2018-11-13T18:39:52.108Z,65.45
2018-11-13T18:42:28.960Z,65.50
2018-11-13T18:45:04.417Z,65.47
2018-11-13T18:47:39.390Z,65.44
2018-11-13T18:53:22.563Z,65.19
2018-11-13T18:55:58.087Z,65.17
2018-11-13T19:01:25.841Z,65.60
2018-11-13T19:04:00.759Z,65.99
2018-11-13T19:06:35.070Z,66.02
2018-11-13T19:09:12.781Z,65.93
2018-11-13T19:11:48.402Z,65.95
2018-11-13T19:14:23.196Z,66.17
2018-11-13T19:17:00.612Z,66.20
2018-11-13T19:19:35.069Z,66.29
2018-11-13T19:22:10.170Z,66.41
2018-11-13T19:24:44.315Z,66.33
2018-11-13T19:27:19.603Z,66.22
2018-11-13T19:29:54.872Z,66.23
2018-11-13T19:32:29.485Z,66.17
2018-11-13T19:35:04.665Z,66.09
2018-11-13T19:37:42.391Z,66.03
2018-11-13T19:40:19.742Z,66.08
2018-11-13T19:42:56.809Z,66.14
2018-11-13T19:45:31.581Z,66.11
2018-11-13T19:50:49.180Z,65.85
2018-11-13T19:53:24.862Z,65.90
2018-11-13T19:56:01.706Z,65.88
2018-11-13T19:58:38.853Z,65.61
2018-11-13T20:01:12.999Z,65.80
2018-11-13T20:03:48.621Z,65.67
2018-11-13T20:06:24.833Z,65.85
2018-11-13T20:09:00.260Z,65.98
2018-11-13T20:11:36.484Z,65.78
2018-11-13T20:17:04.282Z,65.93
2018-11-13T20:22:33.339Z,65.90
2018-11-13T20:28:05.695Z,65.78
2018-11-13T20:30:41.978Z,65.85
2018-11-13T20:33:17.582Z,66.19
2018-11-13T20:38:39.665Z,66.28
2018-11-13T20:41:14.425Z,66.31
2018-11-13T20:48:29.687Z,66.95
2018-11-13T20:51:05.265Z,66.55
2018-11-13T20:53:40.480Z,66.42
2018-11-13T20:58:59.376Z,65.86
2018-11-13T21:01:34.243Z,65.94
2018-11-13T21:04:13.443Z,65.97
2018-11-13T21:09:30.789Z,65.70
2018-11-13T21:12:08.372Z,65.61
2018-11-13T21:17:34.577Z,65.54
2018-11-13T21:20:14.234Z,65.65
2018-11-13T21:22:49.832Z,65.66
2018-11-13T21:28:07.405Z,65.70
2018-11-13T21:30:42.701Z,65.69
2018-11-13T21:33:17.885Z,65.84
2018-11-13T21:38:48.747Z,65.87
2018-11-13T21:41:24.090Z,65.85
2018-11-13T21:43:58.523Z,65.69
2018-11-13T21:49:24.578Z,66.04
2018-11-13T21:51:59.075Z,66.00
2018-11-13T21:57:25.923Z,65.54
2018-11-13T22:00:01.107Z,65.75
2018-11-13T22:02:36.321Z,66.03
2018-11-13T22:10:38.103Z,65.91
2018-11-13T22:13:13.023Z,65.67
2018-11-13T22:15:48.491Z,65.67
2018-11-13T22:18:23.768Z,65.92
2018-11-13T22:20:59.292Z,65.78
2018-11-13T22:26:23.096Z,65.38
2018-11-13T22:28:58.413Z,65.81
2018-11-13T22:31:33.774Z,65.64
2018-11-13T22:36:57.455Z,65.83
2018-11-13T22:39:33.729Z,66.03
2018-11-13T22:42:08.529Z,65.77
2018-11-13T22:47:36.142Z,65.89
2018-11-13T22:50:15.049Z,65.82
2018-11-13T22:52:51.288Z,65.97
2018-11-13T22:58:22.406Z,65.60
2018-11-13T23:00:57.255Z,65.65
2018-11-13T23:03:33.029Z,65.63
2018-11-13T23:08:50.301Z,65.64
2018-11-13T23:11:26.745Z,65.82
2018-11-13T23:14:02.540Z,65.86
2018-11-13T23:19:33.185Z,65.93
2018-11-13T23:22:08.900Z,66.17
2018-11-13T23:27:29.560Z,66.17
2018-11-13T23:30:04.911Z,65.95
2018-11-13T23:32:40.402Z,66.01
2018-11-13T23:38:02.051Z,65.86
2018-11-13T23:40:37.084Z,65.63
2018-11-13T23:43:12.290Z,65.61
2018-11-13T23:45:47.054Z,65.53
2018-11-13T23:48:22.198Z,65.76
2018-11-13T23:53:39.587Z,65.72
2018-11-13T23:56:14.925Z,65.82
2018-11-13T23:58:50.844Z,65.86
